sensor_id;sensor_type;location;lat;lon;timestamp;P1;durP1;ratioP1;P2;durP2;ratioP2
62610;SDS011;48683;48.084;17.272;2024-03-07T00:01:25;18.73;;;14.20;;
62610;SDS011;48683;48.084;17.272;2024-03-07T00:03:51;19.60;;;13.57;;
62610;SDS011;48683;48.084;17.272;2024-03-07T00:06:16;19.07;;;12.70;;
62610;SDS011;48683;48.084;17.272;2024-03-07T00:08:42;17.42;;;13.00;;
62610;SDS011;48683;48.084;17.272;2024-03-07T00:11:07;17.85;;;13.57;;
62610;SDS011;48683;48.084;17.272;2024-03-07T00:13:32;18.97;;;12.87;;
62610;SDS011;48683;48.084;17.272;2024-03-07T00:15:58;17.55;;;13.00;;
62610;SDS011;48683;48.084;17.272;2024-03-07T00:18:23;17.60;;;12.97;;
62610;SDS011;48683;48.084;17.272;2024-03-07T00:20:49;16.13;;;11.97;;
62610;SDS011;48683;48.084;17.272;2024-03-07T00:23:14;16.60;;;12.60;;
62610;SDS011;48683;48.084;17.272;2024-03-07T00:28:06;17.52;;;12.27;;
62610;SDS011;48683;48.084;17.272;2024-03-07T00:30:31;16.77;;;12.03;;
62610;SDS011;48683;48.084;17.272;2024-03-07T00:32:58;15.20;;;11.10;;
62610;SDS011;48683;48.084;17.272;2024-03-07T00:35:24;15.40;;;11.32;;
62610;SDS011;48683;48.084;17.272;2024-03-07T00:37:49;17.13;;;11.70;;
62610;SDS011;48683;48.084;17.272;2024-03-07T00:40:15;14.67;;;11.30;;
62610;SDS011;48683;48.084;17.272;2024-03-07T00:42:40;13.88;;;10.52;;
62610;SDS011;48683;48.084;17.272;2024-03-07T00:45:05;14.53;;;10.53;;
62610;SDS011;48683;48.084;17.272;2024-03-07T00:47:31;13.52;;;10.77;;
62610;SDS011;48683;48.084;17.272;2024-03-07T00:49:59;14.00;;;10.50;;
62610;SDS011;48683;48.084;17.272;2024-03-07T00:52:25;15.63;;;10.85;;
62610;SDS011;48683;48.084;17.272;2024-03-07T00:54:50;12.85;;;9.57;;
62610;SDS011;48683;48.084;17.272;2024-03-07T00:57:15;12.00;;;9.47;;
62610;SDS011;48683;48.084;17.272;2024-03-07T00:59:40;12.10;;;9.40;;
62610;SDS011;48683;48.084;17.272;2024-03-07T01:02:06;11.33;;;8.93;;
62610;SDS011;48683;48.084;17.272;2024-03-07T01:04:32;11.88;;;8.68;;
62610;SDS011;48683;48.084;17.272;2024-03-07T01:06:58;10.35;;;8.35;;
62610;SDS011;48683;48.084;17.272;2024-03-07T01:09:23;11.55;;;8.82;;
62610;SDS011;48683;48.084;17.272;2024-03-07T01:11:49;9.13;;;7.60;;
62610;SDS011;48683;48.084;17.272;2024-03-07T01:14:14;10.82;;;7.95;;
62610;SDS011;48683;48.084;17.272;2024-03-07T01:16:39;10.50;;;8.15;;
62610;SDS011;48683;48.084;17.272;2024-03-07T01:19:05;10.60;;;8.17;;
62610;SDS011;48683;48.084;17.272;2024-03-07T01:21:31;9.40;;;7.35;;
62610;SDS011;48683;48.084;17.272;2024-03-07T01:23:56;10.75;;;8.23;;
62610;SDS011;48683;48.084;17.272;2024-03-07T01:26:22;10.40;;;7.70;;
62610;SDS011;48683;48.084;17.272;2024-03-07T01:28:47;11.55;;;7.45;;
62610;SDS011;48683;48.084;17.272;2024-03-07T01:31:12;8.95;;;7.47;;
62610;SDS011;48683;48.084;17.272;2024-03-07T01:33:37;10.57;;;8.05;;
62610;SDS011;48683;48.084;17.272;2024-03-07T01:36:03;11.33;;;8.47;;
62610;SDS011;48683;48.084;17.272;2024-03-07T01:40:55;10.43;;;7.78;;
62610;SDS011;48683;48.084;17.272;2024-03-07T01:43:20;12.67;;;7.73;;
62610;SDS011;48683;48.084;17.272;2024-03-07T01:45:46;11.52;;;8.63;;
62610;SDS011;48683;48.084;17.272;2024-03-07T01:48:12;14.82;;;9.88;;
62610;SDS011;48683;48.084;17.272;2024-03-07T01:50:40;13.43;;;9.00;;
62610;SDS011;48683;48.084;17.272;2024-03-07T01:53:06;13.83;;;9.33;;
62610;SDS011;48683;48.084;17.272;2024-03-07T01:55:31;14.77;;;9.75;;
62610;SDS011;48683;48.084;17.272;2024-03-07T01:57:58;14.30;;;10.33;;
62610;SDS011;48683;48.084;17.272;2024-03-07T02:00:24;13.40;;;10.70;;
62610;SDS011;48683;48.084;17.272;2024-03-07T02:02:49;16.33;;;10.80;;
62610;SDS011;48683;48.084;17.272;2024-03-07T02:05:14;17.60;;;10.83;;
62610;SDS011;48683;48.084;17.272;2024-03-07T02:07:40;17.75;;;11.82;;
62610;SDS011;48683;48.084;17.272;2024-03-07T02:10:05;14.70;;;11.77;;
62610;SDS011;48683;48.084;17.272;2024-03-07T02:12:31;15.15;;;11.80;;
62610;SDS011;48683;48.084;17.272;2024-03-07T02:14:56;15.68;;;11.95;;
62610;SDS011;48683;48.084;17.272;2024-03-07T02:17:22;14.90;;;11.85;;
62610;SDS011;48683;48.084;17.272;2024-03-07T02:19:47;15.63;;;11.23;;
62610;SDS011;48683;48.084;17.272;2024-03-07T02:22:13;15.73;;;12.30;;
62610;SDS011;48683;48.084;17.272;2024-03-07T02:24:38;16.38;;;11.65;;
62610;SDS011;48683;48.084;17.272;2024-03-07T02:27:03;14.75;;;11.23;;
62610;SDS011;48683;48.084;17.272;2024-03-07T02:29:29;14.33;;;11.23;;
62610;SDS011;48683;48.084;17.272;2024-03-07T02:31:55;14.65;;;11.32;;
62610;SDS011;48683;48.084;17.272;2024-03-07T02:34:21;17.80;;;11.32;;
62610;SDS011;48683;48.084;17.272;2024-03-07T02:36:46;15.10;;;11.87;;
62610;SDS011;48683;48.084;17.272;2024-03-07T02:39:12;15.87;;;11.70;;
62610;SDS011;48683;48.084;17.272;2024-03-07T02:41:37;17.93;;;11.93;;
62610;SDS011;48683;48.084;17.272;2024-03-07T02:44:02;16.57;;;12.33;;
62610;SDS011;48683;48.084;17.272;2024-03-07T02:46:29;15.82;;;11.82;;
62610;SDS011;48683;48.084;17.272;2024-03-07T02:48:54;15.52;;;11.65;;
62610;SDS011;48683;48.084;17.272;2024-03-07T02:51:19;17.00;;;11.87;;
62610;SDS011;48683;48.084;17.272;2024-03-07T02:53:45;16.73;;;13.18;;
62610;SDS011;48683;48.084;17.272;2024-03-07T02:56:10;15.75;;;11.80;;
62610;SDS011;48683;48.084;17.272;2024-03-07T02:58:36;16.50;;;11.68;;
62610;SDS011;48683;48.084;17.272;2024-03-07T03:01:01;16.00;;;12.23;;
62610;SDS011;48683;48.084;17.272;2024-03-07T03:03:28;16.40;;;11.88;;
62610;SDS011;48683;48.084;17.272;2024-03-07T03:05:56;17.38;;;12.60;;
62610;SDS011;48683;48.084;17.272;2024-03-07T03:08:21;17.33;;;12.73;;
62610;SDS011;48683;48.084;17.272;2024-03-07T03:10:47;17.75;;;13.13;;
62610;SDS011;48683;48.084;17.272;2024-03-07T03:13:12;18.38;;;12.77;;
62610;SDS011;48683;48.084;17.272;2024-03-07T03:15:38;17.63;;;12.75;;
62610;SDS011;48683;48.084;17.272;2024-03-07T03:18:03;18.60;;;13.13;;
62610;SDS011;48683;48.084;17.272;2024-03-07T03:23:05;17.48;;;12.18;;
62610;SDS011;48683;48.084;17.272;2024-03-07T03:25:38;18.25;;;13.15;;
62610;SDS011;48683;48.084;17.272;2024-03-07T03:28:03;18.13;;;12.43;;
62610;SDS011;48683;48.084;17.272;2024-03-07T03:30:29;17.42;;;13.27;;
62610;SDS011;48683;48.084;17.272;2024-03-07T03:32:54;20.60;;;14.10;;
62610;SDS011;48683;48.084;17.272;2024-03-07T03:35:20;18.73;;;13.70;;
62610;SDS011;48683;48.084;17.272;2024-03-07T03:37:45;19.23;;;14.13;;
62610;SDS011;48683;48.084;17.272;2024-03-07T03:40:11;18.95;;;13.57;;
62610;SDS011;48683;48.084;17.272;2024-03-07T03:42:38;21.38;;;14.25;;
62610;SDS011;48683;48.084;17.272;2024-03-07T03:45:04;19.85;;;13.82;;
62610;SDS011;48683;48.084;17.272;2024-03-07T03:47:35;19.25;;;13.88;;
62610;SDS011;48683;48.084;17.272;2024-03-07T03:50:04;19.75;;;14.68;;
62610;SDS011;48683;48.084;17.272;2024-03-07T03:52:29;21.33;;;14.48;;
62610;SDS011;48683;48.084;17.272;2024-03-07T03:54:55;27.05;;;14.63;;
62610;SDS011;48683;48.084;17.272;2024-03-07T03:57:21;19.57;;;14.00;;
62610;SDS011;48683;48.084;17.272;2024-03-07T03:59:47;19.57;;;14.80;;
62610;SDS011;48683;48.084;17.272;2024-03-07T04:02:12;19.50;;;14.40;;
62610;SDS011;48683;48.084;17.272;2024-03-07T04:04:40;23.17;;;15.27;;
62610;SDS011;48683;48.084;17.272;2024-03-07T04:07:05;21.52;;;14.90;;
62610;SDS011;48683;48.084;17.272;2024-03-07T04:09:30;20.05;;;14.35;;
62610;SDS011;48683;48.084;17.272;2024-03-07T04:11:56;22.38;;;15.02;;
62610;SDS011;48683;48.084;17.272;2024-03-07T04:14:22;23.33;;;16.08;;
62610;SDS011;48683;48.084;17.272;2024-03-07T04:16:47;24.27;;;16.20;;
62610;SDS011;48683;48.084;17.272;2024-03-07T04:19:12;23.90;;;16.97;;
62610;SDS011;48683;48.084;17.272;2024-03-07T04:21:37;25.07;;;17.73;;
62610;SDS011;48683;48.084;17.272;2024-03-07T04:24:03;24.08;;;16.63;;
62610;SDS011;48683;48.084;17.272;2024-03-07T04:26:28;23.35;;;16.73;;
62610;SDS011;48683;48.084;17.272;2024-03-07T04:28:53;22.23;;;15.47;;
62610;SDS011;48683;48.084;17.272;2024-03-07T04:31:18;20.47;;;14.67;;
62610;SDS011;48683;48.084;17.272;2024-03-07T04:33:44;19.57;;;13.67;;
62610;SDS011;48683;48.084;17.272;2024-03-07T04:36:09;18.43;;;13.17;;
62610;SDS011;48683;48.084;17.272;2024-03-07T04:38:34;17.00;;;13.43;;
62610;SDS011;48683;48.084;17.272;2024-03-07T04:40:59;17.77;;;13.80;;
62610;SDS011;48683;48.084;17.272;2024-03-07T04:43:24;18.90;;;14.13;;
62610;SDS011;48683;48.084;17.272;2024-03-07T04:45:51;18.43;;;13.10;;
62610;SDS011;48683;48.084;17.272;2024-03-07T04:48:16;16.23;;;11.50;;
62610;SDS011;48683;48.084;17.272;2024-03-07T04:50:41;17.50;;;12.13;;
62610;SDS011;48683;48.084;17.272;2024-03-07T04:53:07;16.35;;;12.45;;
62610;SDS011;48683;48.084;17.272;2024-03-07T04:55:32;14.90;;;11.30;;
62610;SDS011;48683;48.084;17.272;2024-03-07T04:57:58;14.48;;;11.52;;
62610;SDS011;48683;48.084;17.272;2024-03-07T05:00:23;14.83;;;11.63;;
62610;SDS011;48683;48.084;17.272;2024-03-07T05:02:49;15.57;;;10.93;;
62610;SDS011;48683;48.084;17.272;2024-03-07T05:05:17;15.05;;;10.30;;
62610;SDS011;48683;48.084;17.272;2024-03-07T05:07:51;14.18;;;10.35;;
62610;SDS011;48683;48.084;17.272;2024-03-07T05:10:16;12.20;;;9.27;;
62610;SDS011;48683;48.084;17.272;2024-03-07T05:12:41;10.90;;;9.00;;
62610;SDS011;48683;48.084;17.272;2024-03-07T05:17:34;10.68;;;8.32;;
62610;SDS011;48683;48.084;17.272;2024-03-07T05:20:02;10.38;;;8.05;;
62610;SDS011;48683;48.084;17.272;2024-03-07T05:22:28;9.40;;;8.07;;
62610;SDS011;48683;48.084;17.272;2024-03-07T05:24:55;10.77;;;8.30;;
62610;SDS011;48683;48.084;17.272;2024-03-07T05:27:22;9.77;;;8.25;;
62610;SDS011;48683;48.084;17.272;2024-03-07T05:29:47;9.17;;;7.57;;
62610;SDS011;48683;48.084;17.272;2024-03-07T05:32:21;9.80;;;8.37;;
62610;SDS011;48683;48.084;17.272;2024-03-07T05:34:50;9.35;;;8.10;;
62610;SDS011;48683;48.084;17.272;2024-03-07T05:37:16;10.93;;;8.23;;
62610;SDS011;48683;48.084;17.272;2024-03-07T05:39:41;9.47;;;8.40;;
62610;SDS011;48683;48.084;17.272;2024-03-07T05:42:06;9.50;;;8.47;;
62610;SDS011;48683;48.084;17.272;2024-03-07T05:44:32;11.05;;;8.93;;
62610;SDS011;48683;48.084;17.272;2024-03-07T05:46:57;11.40;;;8.48;;
62610;SDS011;48683;48.084;17.272;2024-03-07T05:49:22;9.90;;;8.90;;
62610;SDS011;48683;48.084;17.272;2024-03-07T05:51:48;11.30;;;8.77;;
62610;SDS011;48683;48.084;17.272;2024-03-07T05:54:13;10.93;;;9.17;;
62610;SDS011;48683;48.084;17.272;2024-03-07T05:56:38;10.63;;;8.97;;
62610;SDS011;48683;48.084;17.272;2024-03-07T05:59:04;13.23;;;10.20;;
62610;SDS011;48683;48.084;17.272;2024-03-07T06:01:30;12.68;;;10.38;;
62610;SDS011;48683;48.084;17.272;2024-03-07T06:03:57;11.20;;;9.85;;
62610;SDS011;48683;48.084;17.272;2024-03-07T06:06:23;16.55;;;10.75;;
62610;SDS011;48683;48.084;17.272;2024-03-07T06:08:49;13.65;;;10.88;;
62610;SDS011;48683;48.084;17.272;2024-03-07T06:11:14;13.60;;;10.32;;
62610;SDS011;48683;48.084;17.272;2024-03-07T06:13:44;11.35;;;9.70;;
62610;SDS011;48683;48.084;17.272;2024-03-07T06:16:11;12.97;;;9.40;;
62610;SDS011;48683;48.084;17.272;2024-03-07T06:18:36;12.30;;;10.20;;
62610;SDS011;48683;48.084;17.272;2024-03-07T06:21:01;12.07;;;10.27;;
62610;SDS011;48683;48.084;17.272;2024-03-07T06:23:29;12.43;;;10.38;;
62610;SDS011;48683;48.084;17.272;2024-03-07T06:25:55;13.65;;;10.57;;
62610;SDS011;48683;48.084;17.272;2024-03-07T06:28:21;12.57;;;10.60;;
62610;SDS011;48683;48.084;17.272;2024-03-07T06:30:46;13.85;;;10.80;;
62610;SDS011;48683;48.084;17.272;2024-03-07T06:33:12;13.50;;;9.93;;
62610;SDS011;48683;48.084;17.272;2024-03-07T06:35:37;14.00;;;11.05;;
62610;SDS011;48683;48.084;17.272;2024-03-07T06:38:07;11.52;;;9.38;;
62610;SDS011;48683;48.084;17.272;2024-03-07T06:40:33;12.38;;;8.95;;
62610;SDS011;48683;48.084;17.272;2024-03-07T06:43:01;11.02;;;7.85;;
62610;SDS011;48683;48.084;17.272;2024-03-07T06:45:29;10.27;;;7.90;;
62610;SDS011;48683;48.084;17.272;2024-03-07T06:47:55;9.30;;;7.57;;
62610;SDS011;48683;48.084;17.272;2024-03-07T06:50:20;10.52;;;7.93;;
62610;SDS011;48683;48.084;17.272;2024-03-07T06:52:46;9.32;;;7.47;;
62610;SDS011;48683;48.084;17.272;2024-03-07T06:55:17;10.48;;;7.97;;
62610;SDS011;48683;48.084;17.272;2024-03-07T06:57:43;8.80;;;7.72;;
62610;SDS011;48683;48.084;17.272;2024-03-07T07:00:09;9.18;;;7.40;;
62610;SDS011;48683;48.084;17.272;2024-03-07T07:02:39;10.35;;;7.40;;
62610;SDS011;48683;48.084;17.272;2024-03-07T07:05:06;8.90;;;7.43;;
62610;SDS011;48683;48.084;17.272;2024-03-07T07:07:35;9.25;;;7.82;;
62610;SDS011;48683;48.084;17.272;2024-03-07T07:10:01;9.73;;;7.60;;
62610;SDS011;48683;48.084;17.272;2024-03-07T07:12:26;9.23;;;7.43;;
62610;SDS011;48683;48.084;17.272;2024-03-07T07:14:53;7.53;;;6.43;;
62610;SDS011;48683;48.084;17.272;2024-03-07T07:17:18;8.73;;;7.50;;
62610;SDS011;48683;48.084;17.272;2024-03-07T07:19:44;9.33;;;7.50;;
62610;SDS011;48683;48.084;17.272;2024-03-07T07:22:10;8.30;;;6.60;;
62610;SDS011;48683;48.084;17.272;2024-03-07T07:24:35;7.32;;;6.40;;
62610;SDS011;48683;48.084;17.272;2024-03-07T07:27:02;9.10;;;7.10;;
62610;SDS011;48683;48.084;17.272;2024-03-07T07:29:27;10.67;;;7.50;;
62610;SDS011;48683;48.084;17.272;2024-03-07T07:31:53;10.13;;;7.43;;
62610;SDS011;48683;48.084;17.272;2024-03-07T07:34:18;8.60;;;7.10;;
62610;SDS011;48683;48.084;17.272;2024-03-07T07:36:43;8.60;;;6.97;;
62610;SDS011;48683;48.084;17.272;2024-03-07T07:39:08;10.07;;;7.30;;
62610;SDS011;48683;48.084;17.272;2024-03-07T07:41:41;9.23;;;7.43;;
62610;SDS011;48683;48.084;17.272;2024-03-07T07:44:07;9.00;;;6.95;;
62610;SDS011;48683;48.084;17.272;2024-03-07T07:46:33;9.68;;;7.05;;
62610;SDS011;48683;48.084;17.272;2024-03-07T07:48:59;8.30;;;7.38;;
62610;SDS011;48683;48.084;17.272;2024-03-07T07:51:24;8.35;;;6.70;;
62610;SDS011;48683;48.084;17.272;2024-03-07T07:53:50;8.82;;;6.97;;
62610;SDS011;48683;48.084;17.272;2024-03-07T07:56:15;9.00;;;6.82;;
62610;SDS011;48683;48.084;17.272;2024-03-07T07:58:41;9.38;;;6.72;;
62610;SDS011;48683;48.084;17.272;2024-03-07T08:01:06;9.00;;;6.77;;
62610;SDS011;48683;48.084;17.272;2024-03-07T08:03:34;8.30;;;6.43;;
62610;SDS011;48683;48.084;17.272;2024-03-07T08:06:00;7.85;;;6.30;;
62610;SDS011;48683;48.084;17.272;2024-03-07T08:08:25;10.90;;;6.47;;
62610;SDS011;48683;48.084;17.272;2024-03-07T08:10:50;6.67;;;5.67;;
62610;SDS011;48683;48.084;17.272;2024-03-07T08:13:16;8.38;;;6.20;;
62610;SDS011;48683;48.084;17.272;2024-03-07T08:15:41;8.93;;;6.10;;
62610;SDS011;48683;48.084;17.272;2024-03-07T08:18:06;10.23;;;5.85;;
62610;SDS011;48683;48.084;17.272;2024-03-07T08:20:33;8.68;;;6.30;;
62610;SDS011;48683;48.084;17.272;2024-03-07T08:22:58;7.28;;;5.97;;
62610;SDS011;48683;48.084;17.272;2024-03-07T08:25:25;7.07;;;5.95;;
62610;SDS011;48683;48.084;17.272;2024-03-07T08:27:51;7.67;;;6.40;;
62610;SDS011;48683;48.084;17.272;2024-03-07T08:30:16;7.50;;;5.95;;
62610;SDS011;48683;48.084;17.272;2024-03-07T08:32:43;8.70;;;6.43;;
62610;SDS011;48683;48.084;17.272;2024-03-07T08:35:08;7.90;;;6.43;;
62610;SDS011;48683;48.084;17.272;2024-03-07T08:37:46;8.38;;;6.35;;
62610;SDS011;48683;48.084;17.272;2024-03-07T08:40:17;5.82;;;4.78;;
62610;SDS011;48683;48.084;17.272;2024-03-07T08:42:46;9.55;;;6.05;;
62610;SDS011;48683;48.084;17.272;2024-03-07T08:45:11;7.38;;;5.50;;
62610;SDS011;48683;48.084;17.272;2024-03-07T08:47:42;10.63;;;5.22;;
62610;SDS011;48683;48.084;17.272;2024-03-07T08:50:07;8.10;;;5.85;;
62610;SDS011;48683;48.084;17.272;2024-03-07T08:52:33;7.43;;;5.32;;
62610;SDS011;48683;48.084;17.272;2024-03-07T08:55:00;6.63;;;5.68;;
62610;SDS011;48683;48.084;17.272;2024-03-07T08:57:25;7.00;;;5.57;;
62610;SDS011;48683;48.084;17.272;2024-03-07T08:59:50;8.00;;;5.33;;
62610;SDS011;48683;48.084;17.272;2024-03-07T09:02:15;6.73;;;5.33;;
62610;SDS011;48683;48.084;17.272;2024-03-07T09:04:40;6.85;;;4.75;;
62610;SDS011;48683;48.084;17.272;2024-03-07T09:07:06;6.87;;;5.67;;
62610;SDS011;48683;48.084;17.272;2024-03-07T09:09:31;7.63;;;5.90;;
62610;SDS011;48683;48.084;17.272;2024-03-07T09:11:57;10.70;;;5.25;;
62610;SDS011;48683;48.084;17.272;2024-03-07T09:14:22;8.48;;;6.38;;
62610;SDS011;48683;48.084;17.272;2024-03-07T09:16:47;8.30;;;5.63;;
62610;SDS011;48683;48.084;17.272;2024-03-07T09:19:13;8.07;;;5.15;;
62610;SDS011;48683;48.084;17.272;2024-03-07T09:21:39;7.88;;;5.65;;
62610;SDS011;48683;48.084;17.272;2024-03-07T09:24:05;6.53;;;5.20;;
62610;SDS011;48683;48.084;17.272;2024-03-07T09:26:31;8.02;;;6.38;;
62610;SDS011;48683;48.084;17.272;2024-03-07T09:28:57;8.43;;;5.63;;
62610;SDS011;48683;48.084;17.272;2024-03-07T09:31:22;5.93;;;4.50;;
62610;SDS011;48683;48.084;17.272;2024-03-07T09:33:47;7.80;;;6.13;;
62610;SDS011;48683;48.084;17.272;2024-03-07T09:36:13;13.05;;;8.68;;
62610;SDS011;48683;48.084;17.272;2024-03-07T09:38:39;9.45;;;7.57;;
62610;SDS011;48683;48.084;17.272;2024-03-07T09:41:05;9.60;;;7.40;;
62610;SDS011;48683;48.084;17.272;2024-03-07T09:43:31;11.45;;;6.40;;
62610;SDS011;48683;48.084;17.272;2024-03-07T09:45:58;9.35;;;6.70;;
62610;SDS011;48683;48.084;17.272;2024-03-07T09:48:23;7.45;;;5.75;;
62610;SDS011;48683;48.084;17.272;2024-03-07T09:50:52;9.40;;;6.40;;
62610;SDS011;48683;48.084;17.272;2024-03-07T09:53:19;9.38;;;6.60;;
62610;SDS011;48683;48.084;17.272;2024-03-07T09:55:45;7.90;;;6.10;;
62610;SDS011;48683;48.084;17.272;2024-03-07T09:58:11;8.25;;;6.22;;
62610;SDS011;48683;48.084;17.272;2024-03-07T10:00:38;7.95;;;6.05;;
62610;SDS011;48683;48.084;17.272;2024-03-07T10:05:31;11.55;;;6.72;;
62610;SDS011;48683;48.084;17.272;2024-03-07T10:07:57;10.40;;;6.90;;
62610;SDS011;48683;48.084;17.272;2024-03-07T10:10:23;9.32;;;6.47;;
62610;SDS011;48683;48.084;17.272;2024-03-07T10:12:49;7.50;;;5.97;;
62610;SDS011;48683;48.084;17.272;2024-03-07T10:15:14;7.70;;;5.70;;
62610;SDS011;48683;48.084;17.272;2024-03-07T10:17:42;11.05;;;7.43;;
62610;SDS011;48683;48.084;17.272;2024-03-07T10:20:08;12.52;;;7.35;;
62610;SDS011;48683;48.084;17.272;2024-03-07T10:22:35;12.80;;;7.63;;
62610;SDS011;48683;48.084;17.272;2024-03-07T10:25:01;10.98;;;7.00;;
62610;SDS011;48683;48.084;17.272;2024-03-07T10:27:27;10.85;;;7.53;;
62610;SDS011;48683;48.084;17.272;2024-03-07T10:29:52;15.07;;;8.93;;
62610;SDS011;48683;48.084;17.272;2024-03-07T10:32:19;10.40;;;7.60;;
62610;SDS011;48683;48.084;17.272;2024-03-07T10:34:44;12.50;;;7.90;;
62610;SDS011;48683;48.084;17.272;2024-03-07T10:37:11;10.40;;;7.90;;
62610;SDS011;48683;48.084;17.272;2024-03-07T10:39:36;12.10;;;8.23;;
62610;SDS011;48683;48.084;17.272;2024-03-07T10:42:01;10.80;;;7.77;;
62610;SDS011;48683;48.084;17.272;2024-03-07T10:44:30;11.85;;;8.65;;
62610;SDS011;48683;48.084;17.272;2024-03-07T10:46:56;27.70;;;8.40;;
62610;SDS011;48683;48.084;17.272;2024-03-07T10:49:22;11.03;;;8.13;;
62610;SDS011;48683;48.084;17.272;2024-03-07T10:51:57;13.32;;;7.80;;
62610;SDS011;48683;48.084;17.272;2024-03-07T10:59:40;11.40;;;7.95;;
62610;SDS011;48683;48.084;17.272;2024-03-07T11:02:26;8.88;;;7.00;;
62610;SDS011;48683;48.084;17.272;2024-03-07T11:04:52;10.70;;;7.60;;
62610;SDS011;48683;48.084;17.272;2024-03-07T11:07:19;10.32;;;7.05;;
62610;SDS011;48683;48.084;17.272;2024-03-07T11:09:45;8.48;;;7.05;;
62610;SDS011;48683;48.084;17.272;2024-03-07T11:12:12;10.02;;;7.40;;
62610;SDS011;48683;48.084;17.272;2024-03-07T11:14:37;9.60;;;7.15;;
62610;SDS011;48683;48.084;17.272;2024-03-07T11:17:03;10.70;;;7.63;;
62610;SDS011;48683;48.084;17.272;2024-03-07T11:19:30;9.25;;;7.47;;
62610;SDS011;48683;48.084;17.272;2024-03-07T11:21:57;10.65;;;7.18;;
62610;SDS011;48683;48.084;17.272;2024-03-07T11:24:25;10.82;;;7.70;;
62610;SDS011;48683;48.084;17.272;2024-03-07T11:26:53;9.30;;;7.40;;
62610;SDS011;48683;48.084;17.272;2024-03-07T11:32:14;11.15;;;7.35;;
62610;SDS011;48683;48.084;17.272;2024-03-07T11:34:40;9.18;;;7.07;;
62610;SDS011;48683;48.084;17.272;2024-03-07T11:37:16;11.73;;;7.22;;
62610;SDS011;48683;48.084;17.272;2024-03-07T11:39:47;10.60;;;8.13;;
62610;SDS011;48683;48.084;17.272;2024-03-07T11:44:45;13.25;;;8.52;;
62610;SDS011;48683;48.084;17.272;2024-03-07T11:47:11;11.63;;;7.97;;
62610;SDS011;48683;48.084;17.272;2024-03-07T11:49:37;13.23;;;8.65;;
62610;SDS011;48683;48.084;17.272;2024-03-07T11:52:05;14.07;;;9.13;;
62610;SDS011;48683;48.084;17.272;2024-03-07T11:54:39;12.60;;;9.27;;
62610;SDS011;48683;48.084;17.272;2024-03-07T11:57:10;15.63;;;9.23;;
62610;SDS011;48683;48.084;17.272;2024-03-07T12:02:03;13.82;;;8.50;;
62610;SDS011;48683;48.084;17.272;2024-03-07T12:04:28;14.10;;;8.90;;
62610;SDS011;48683;48.084;17.272;2024-03-07T12:06:53;10.77;;;8.47;;
62610;SDS011;48683;48.084;17.272;2024-03-07T12:09:19;13.70;;;8.95;;
62610;SDS011;48683;48.084;17.272;2024-03-07T12:11:49;14.05;;;9.15;;
62610;SDS011;48683;48.084;17.272;2024-03-07T12:14:17;17.05;;;11.82;;
62610;SDS011;48683;48.084;17.272;2024-03-07T12:16:42;20.02;;;12.65;;
62610;SDS011;48683;48.084;17.272;2024-03-07T12:19:08;17.53;;;10.80;;
62610;SDS011;48683;48.084;17.272;2024-03-07T12:21:36;17.17;;;12.27;;
62610;SDS011;48683;48.084;17.272;2024-03-07T12:24:10;14.45;;;10.52;;
62610;SDS011;48683;48.084;17.272;2024-03-07T12:26:35;15.18;;;10.60;;
62610;SDS011;48683;48.084;17.272;2024-03-07T12:29:07;14.98;;;10.35;;
62610;SDS011;48683;48.084;17.272;2024-03-07T12:31:34;15.07;;;10.55;;
62610;SDS011;48683;48.084;17.272;2024-03-07T12:34:00;14.50;;;10.43;;
62610;SDS011;48683;48.084;17.272;2024-03-07T12:36:27;15.57;;;10.33;;
62610;SDS011;48683;48.084;17.272;2024-03-07T12:38:59;13.10;;;10.45;;
62610;SDS011;48683;48.084;17.272;2024-03-07T12:41:34;13.57;;;10.20;;
62610;SDS011;48683;48.084;17.272;2024-03-07T12:43:59;14.82;;;10.25;;
62610;SDS011;48683;48.084;17.272;2024-03-07T12:46:24;15.48;;;10.55;;
62610;SDS011;48683;48.084;17.272;2024-03-07T12:48:50;15.27;;;11.85;;
62610;SDS011;48683;48.084;17.272;2024-03-07T12:51:15;17.10;;;11.33;;
62610;SDS011;48683;48.084;17.272;2024-03-07T12:53:43;14.00;;;10.50;;
62610;SDS011;48683;48.084;17.272;2024-03-07T12:56:08;15.03;;;11.03;;
62610;SDS011;48683;48.084;17.272;2024-03-07T12:58:34;17.40;;;12.00;;
62610;SDS011;48683;48.084;17.272;2024-03-07T13:00:59;17.60;;;11.73;;
62610;SDS011;48683;48.084;17.272;2024-03-07T13:03:25;16.00;;;11.15;;
62610;SDS011;48683;48.084;17.272;2024-03-07T13:05:55;17.23;;;11.57;;
62610;SDS011;48683;48.084;17.272;2024-03-07T13:08:20;18.25;;;12.20;;
62610;SDS011;48683;48.084;17.272;2024-03-07T13:10:50;18.27;;;12.18;;
62610;SDS011;48683;48.084;17.272;2024-03-07T13:13:15;15.37;;;11.67;;
62610;SDS011;48683;48.084;17.272;2024-03-07T13:15:41;14.30;;;10.85;;
62610;SDS011;48683;48.084;17.272;2024-03-07T13:18:07;15.93;;;11.27;;
62610;SDS011;48683;48.084;17.272;2024-03-07T13:20:33;16.75;;;11.85;;
62610;SDS011;48683;48.084;17.272;2024-03-07T13:22:59;21.10;;;13.13;;
62610;SDS011;48683;48.084;17.272;2024-03-07T13:25:26;19.42;;;12.68;;
62610;SDS011;48683;48.084;17.272;2024-03-07T13:27:54;19.83;;;12.55;;
62610;SDS011;48683;48.084;17.272;2024-03-07T13:30:21;15.80;;;12.13;;
62610;SDS011;48683;48.084;17.272;2024-03-07T13:32:52;16.15;;;11.98;;
62610;SDS011;48683;48.084;17.272;2024-03-07T13:35:18;20.77;;;12.32;;
62610;SDS011;48683;48.084;17.272;2024-03-07T13:37:45;17.98;;;11.88;;
62610;SDS011;48683;48.084;17.272;2024-03-07T13:40:12;20.10;;;12.95;;
62610;SDS011;48683;48.084;17.272;2024-03-07T13:42:48;18.83;;;12.23;;
62610;SDS011;48683;48.084;17.272;2024-03-07T13:45:13;17.25;;;12.77;;
62610;SDS011;48683;48.084;17.272;2024-03-07T13:47:38;17.57;;;12.00;;
62610;SDS011;48683;48.084;17.272;2024-03-07T13:50:04;16.77;;;12.00;;
62610;SDS011;48683;48.084;17.272;2024-03-07T13:52:29;17.90;;;11.50;;
62610;SDS011;48683;48.084;17.272;2024-03-07T13:54:56;16.77;;;12.48;;
62610;SDS011;48683;48.084;17.272;2024-03-07T14:05:36;17.13;;;11.52;;
62610;SDS011;48683;48.084;17.272;2024-03-07T14:15:51;19.00;;;13.05;;
62610;SDS011;48683;48.084;17.272;2024-03-07T14:28:49;25.30;;;16.13;;
62610;SDS011;48683;48.084;17.272;2024-03-07T14:31:17;21.65;;;15.43;;
62610;SDS011;48683;48.084;17.272;2024-03-07T14:36:40;22.40;;;15.20;;
62610;SDS011;48683;48.084;17.272;2024-03-07T14:39:06;22.75;;;14.38;;
62610;SDS011;48683;48.084;17.272;2024-03-07T14:44:14;23.27;;;15.60;;
62610;SDS011;48683;48.084;17.272;2024-03-07T14:46:39;22.80;;;14.85;;
62610;SDS011;48683;48.084;17.272;2024-03-07T14:49:05;24.67;;;16.33;;
62610;SDS011;48683;48.084;17.272;2024-03-07T14:51:31;22.30;;;15.65;;
62610;SDS011;48683;48.084;17.272;2024-03-07T14:53:56;26.33;;;16.83;;
62610;SDS011;48683;48.084;17.272;2024-03-07T14:56:22;24.80;;;15.98;;
62610;SDS011;48683;48.084;17.272;2024-03-07T14:58:47;29.40;;;17.80;;
62610;SDS011;48683;48.084;17.272;2024-03-07T15:01:12;27.27;;;18.57;;
62610;SDS011;48683;48.084;17.272;2024-03-07T15:03:38;27.95;;;18.33;;
62610;SDS011;48683;48.084;17.272;2024-03-07T15:06:04;28.95;;;18.45;;
62610;SDS011;48683;48.084;17.272;2024-03-07T15:08:33;29.98;;;19.55;;
62610;SDS011;48683;48.084;17.272;2024-03-07T15:11:09;28.50;;;18.37;;